Terminal Aerodrome Forecast
Issued by NWS Quad Cities IA IL

Home | Current Version | Previous Version | Text Only | Print | Product List | Glossary On
Versions: 1 2 3 4 5 6 7 8 9 10 11 12 13 14 15 16 17 18 19 20 21 22 23 24 25 26 27 28 29 30 31 32
495
FTUS43 KDVN 011726
TAFDBQ
TAF
KDBQ 011726Z 0118/0218 05011KT P6SM VCSH OVC011
     FM020100 02007KT 6SM BR OVC014
     FM021000 02007KT P6SM SCT030=

USA.gov is the U.S. government's official web portal to all federal, state and local government web resources and services.